createdAt,value
2023-10-04T00:00:17.240Z,69.800000
2023-10-04T00:05:16.920Z,69.500000
2023-10-04T00:10:17.086Z,69.600000
2023-10-04T00:15:17.078Z,69.600000
2023-10-04T00:20:17.012Z,69.700000
2023-10-04T00:25:16.991Z,69.700000
2023-10-04T00:30:17.186Z,69.500000
2023-10-04T00:35:16.962Z,68.900000
2023-10-04T00:40:17.245Z,68.700000
2023-10-04T00:45:17.007Z,68.400000
2023-10-04T00:50:17.121Z,68.400000
2023-10-04T00:55:17.018Z,68.400000
2023-10-04T01:00:17.000Z,68.400000
2023-10-04T01:05:17.496Z,68.700000
2023-10-04T01:10:17.235Z,68.700000
2023-10-04T01:15:17.146Z,68.500000
2023-10-04T01:20:17.092Z,68.600000
2023-10-04T01:25:17.159Z,68.600000
2023-10-04T01:30:17.063Z,68.600000
2023-10-04T01:35:17.165Z,68.600000
2023-10-04T01:40:17.074Z,68.500000
2023-10-04T01:45:17.252Z,68.400000
2023-10-04T01:50:17.199Z,68.300000
2023-10-04T01:55:17.204Z,67.800000
2023-10-04T02:00:17.323Z,67.700000
2023-10-04T02:05:17.200Z,67.500000
2023-10-04T02:10:17.189Z,67.600000
2023-10-04T02:15:17.436Z,67.900000
2023-10-04T02:20:17.336Z,68.100000
2023-10-04T02:25:17.341Z,68.200000
2023-10-04T02:30:17.266Z,68.300000
2023-10-04T02:35:17.239Z,68.500000
2023-10-04T02:40:17.300Z,68.500000
2023-10-04T02:45:17.379Z,68.600000
2023-10-04T02:50:17.318Z,68.800000
2023-10-04T02:55:17.346Z,68.900000
2023-10-04T03:00:17.379Z,69.000000
2023-10-04T03:05:17.228Z,68.900000
2023-10-04T03:10:17.438Z,68.800000
2023-10-04T03:15:17.593Z,68.700000
2023-10-04T03:20:17.399Z,68.800000
2023-10-04T03:25:17.399Z,68.900000
2023-10-04T03:30:17.489Z,68.900000
2023-10-04T03:35:17.421Z,68.900000
2023-10-04T03:40:17.403Z,68.800000
2023-10-04T03:45:15.453Z,68.700000
2023-10-04T03:50:15.409Z,68.600000
2023-10-04T03:55:15.434Z,68.500000
2023-10-04T04:00:17.422Z,68.400000
2023-10-04T04:05:16.559Z,68.300000
2023-10-04T04:10:16.627Z,68.100000
2023-10-04T04:15:16.711Z,68.000000
2023-10-04T04:20:16.518Z,67.900000
2023-10-04T04:25:16.659Z,67.600000
2023-10-04T04:30:16.587Z,67.500000
2023-10-04T04:35:16.616Z,67.300000
2023-10-04T04:40:16.587Z,67.100000
2023-10-04T04:45:16.724Z,67.200000
2023-10-04T04:50:16.627Z,67.300000
2023-10-04T04:55:16.615Z,67.000000
2023-10-04T05:00:16.798Z,66.800000
2023-10-04T05:05:16.797Z,66.200000
2023-10-04T05:10:16.623Z,65.800000
2023-10-04T05:15:16.637Z,65.800000
2023-10-04T05:20:16.637Z,65.900000
2023-10-04T05:25:16.667Z,66.200000
2023-10-04T05:30:16.720Z,66.300000
2023-10-04T05:35:16.666Z,66.000000
2023-10-04T05:40:18.595Z,65.700000
2023-10-04T05:45:16.842Z,65.300000
2023-10-04T05:50:16.977Z,65.500000
2023-10-04T05:55:16.757Z,65.900000
2023-10-04T06:00:16.785Z,66.000000
2023-10-04T06:05:16.802Z,66.100000
2023-10-04T06:10:16.843Z,66.000000
2023-10-04T06:15:16.831Z,65.800000
2023-10-04T06:20:16.894Z,65.800000
2023-10-04T06:25:16.869Z,65.200000
2023-10-04T06:30:17.832Z,64.600000
2023-10-04T06:35:16.793Z,64.300000
2023-10-04T06:40:16.871Z,64.100000
2023-10-04T06:45:17.008Z,64.200000
2023-10-04T06:50:16.861Z,64.500000
2023-10-04T06:55:16.926Z,64.300000
2023-10-04T07:00:16.908Z,64.200000
2023-10-04T07:05:17.149Z,64.000000
2023-10-04T07:10:17.092Z,63.900000
2023-10-04T07:15:16.949Z,63.800000
2023-10-04T07:20:16.947Z,63.600000
2023-10-04T07:25:16.901Z,63.700000
2023-10-04T07:30:16.955Z,63.800000
2023-10-04T07:35:17.025Z,63.400000
2023-10-04T07:40:16.973Z,63.100000
2023-10-04T07:45:17.215Z,63.200000
2023-10-04T07:50:17.022Z,63.400000
2023-10-04T07:55:17.026Z,63.400000
2023-10-04T08:00:17.209Z,63.300000
2023-10-04T08:05:17.080Z,63.200000
2023-10-04T08:10:17.066Z,63.000000
2023-10-04T08:15:17.051Z,63.000000
2023-10-04T08:20:17.125Z,62.800000
2023-10-04T08:25:17.111Z,62.500000
2023-10-04T08:30:17.246Z,62.500000
2023-10-04T08:35:17.180Z,62.700000
2023-10-04T08:40:17.092Z,62.800000
2023-10-04T08:45:17.216Z,62.700000
2023-10-04T08:50:17.240Z,62.600000
2023-10-04T08:55:17.125Z,62.400000
2023-10-04T09:00:27.463Z,62.400000
2023-10-04T09:05:17.083Z,62.300000
2023-10-04T09:10:17.294Z,62.000000
2023-10-04T09:15:17.376Z,61.900000
2023-10-04T09:20:17.284Z,61.700000
2023-10-04T09:25:17.291Z,61.500000
2023-10-04T09:30:17.283Z,61.700000
2023-10-04T09:35:17.427Z,61.700000
2023-10-04T09:40:17.450Z,61.800000
2023-10-04T09:45:17.247Z,61.800000
2023-10-04T09:50:17.403Z,61.400000
2023-10-04T09:55:17.364Z,61.400000
2023-10-04T10:00:17.290Z,61.800000
2023-10-04T10:05:17.452Z,61.900000
2023-10-04T10:10:17.403Z,61.900000
2023-10-04T10:15:17.543Z,61.800000
2023-10-04T10:20:17.409Z,61.700000
2023-10-04T10:25:17.377Z,61.700000
2023-10-04T10:30:17.482Z,61.900000
2023-10-04T10:35:17.458Z,61.800000
2023-10-04T10:40:15.565Z,61.800000
2023-10-04T10:45:15.715Z,61.800000
2023-10-04T10:50:15.483Z,61.800000
2023-10-04T10:55:15.444Z,61.700000
2023-10-04T11:00:15.547Z,61.800000
2023-10-04T11:05:15.564Z,61.700000
2023-10-04T11:10:16.117Z,61.800000
2023-10-04T11:15:15.484Z,61.800000
2023-10-04T11:20:15.812Z,62.000000
2023-10-04T11:25:15.849Z,62.200000
2023-10-04T11:30:16.396Z,62.200000
2023-10-04T11:35:15.677Z,62.300000
2023-10-04T11:40:15.819Z,62.500000
2023-10-04T11:45:15.672Z,62.600000
2023-10-04T11:50:15.746Z,62.900000
2023-10-04T11:55:15.775Z,62.900000
2023-10-04T12:00:15.743Z,63.200000
2023-10-04T12:05:15.837Z,63.600000
2023-10-04T12:10:15.723Z,63.900000
2023-10-04T12:15:15.763Z,64.000000
2023-10-04T12:20:15.674Z,64.100000
2023-10-04T12:25:15.725Z,64.300000
2023-10-04T12:30:15.659Z,64.500000
2023-10-04T12:35:15.703Z,64.800000
2023-10-04T12:40:15.727Z,65.100000
2023-10-04T12:45:15.876Z,65.400000
2023-10-04T12:50:15.827Z,65.900000
2023-10-04T12:55:15.994Z,66.300000
2023-10-04T13:00:15.924Z,66.700000
2023-10-04T13:05:16.179Z,67.100000
2023-10-04T13:10:15.966Z,67.300000
2023-10-04T13:15:15.822Z,67.600000
2023-10-04T13:20:15.758Z,67.800000
2023-10-04T13:25:15.932Z,68.000000
2023-10-04T13:30:16.013Z,68.300000
2023-10-04T13:35:16.006Z,68.700000
2023-10-04T13:40:15.899Z,69.000000
2023-10-04T13:45:15.825Z,69.200000
2023-10-04T13:50:15.878Z,69.300000
2023-10-04T13:55:15.931Z,69.400000
2023-10-04T14:00:15.980Z,69.700000
2023-10-04T14:05:16.101Z,69.900000
2023-10-04T14:10:15.917Z,69.800000
2023-10-04T14:15:15.919Z,69.700000
2023-10-04T14:20:15.947Z,69.700000
2023-10-04T14:25:15.982Z,69.600000
2023-10-04T14:30:15.972Z,69.600000
2023-10-04T14:35:16.026Z,69.700000
2023-10-04T14:40:16.081Z,69.800000
2023-10-04T14:45:15.964Z,69.800000
2023-10-04T14:50:16.132Z,69.900000
2023-10-04T14:55:16.018Z,70.400000
2023-10-04T15:00:16.177Z,70.700000
2023-10-04T15:05:16.249Z,70.600000
2023-10-04T15:10:16.045Z,70.300000
2023-10-04T15:15:16.157Z,70.600000
2023-10-04T15:20:17.591Z,70.700000
2023-10-04T15:25:16.209Z,70.600000
2023-10-04T15:30:16.260Z,70.700000
2023-10-04T15:35:16.968Z,71.300000
2023-10-04T15:40:16.274Z,71.900000
2023-10-04T15:45:16.146Z,72.400000
2023-10-04T15:50:16.157Z,73.100000
2023-10-04T15:55:16.278Z,73.700000
2023-10-04T16:00:16.141Z,74.000000
2023-10-04T16:05:16.161Z,74.100000
2023-10-04T16:10:16.359Z,74.200000
2023-10-04T16:15:16.189Z,74.000000
2023-10-04T16:20:16.255Z,73.700000
2023-10-04T16:25:16.297Z,72.900000
2023-10-04T16:30:16.276Z,72.800000
2023-10-04T16:35:16.293Z,73.000000
2023-10-04T16:40:16.295Z,73.100000
2023-10-04T16:45:16.392Z,73.300000
2023-10-04T16:50:16.325Z,73.500000
2023-10-04T16:55:16.326Z,73.500000
2023-10-04T17:00:16.300Z,73.900000
2023-10-04T17:05:16.590Z,74.100000
2023-10-04T17:10:16.396Z,74.000000
2023-10-04T17:15:16.351Z,74.000000
2023-10-04T17:20:16.422Z,74.100000
2023-10-04T17:25:16.369Z,74.200000
2023-10-04T17:30:16.495Z,74.400000
2023-10-04T17:35:16.393Z,74.500000
2023-10-04T17:40:16.526Z,74.700000
2023-10-04T17:45:17.427Z,74.900000
2023-10-04T17:50:16.701Z,75.000000
2023-10-04T17:55:16.518Z,75.200000
2023-10-04T18:00:16.485Z,75.300000
2023-10-04T18:05:16.445Z,75.400000
2023-10-04T18:10:16.616Z,75.400000
2023-10-04T18:15:16.640Z,75.400000
2023-10-04T18:20:16.747Z,75.400000
2023-10-04T18:25:16.558Z,75.500000
2023-10-04T18:30:16.522Z,75.500000
2023-10-04T18:35:16.591Z,75.300000
2023-10-04T18:40:16.675Z,75.200000
2023-10-04T18:45:16.652Z,75.300000
2023-10-04T18:50:16.627Z,75.400000
2023-10-04T18:55:16.594Z,75.700000
2023-10-04T19:00:16.602Z,75.700000
2023-10-04T19:05:16.598Z,75.800000
2023-10-04T19:10:16.740Z,76.000000
2023-10-04T19:15:17.008Z,76.100000
2023-10-04T19:20:16.971Z,76.300000
2023-10-04T19:25:16.987Z,76.400000
2023-10-04T19:30:16.810Z,77.000000
2023-10-04T19:35:17.256Z,77.600000
2023-10-04T19:40:16.811Z,78.100000
2023-10-04T19:45:16.959Z,78.600000
2023-10-04T19:50:16.749Z,79.000000
2023-10-04T19:55:16.785Z,78.300000
2023-10-04T20:00:16.830Z,76.800000
2023-10-04T20:05:16.696Z,76.100000
2023-10-04T20:10:16.791Z,75.500000
2023-10-04T20:15:16.951Z,75.100000
2023-10-04T20:20:17.160Z,74.700000
2023-10-04T20:25:17.019Z,74.400000
2023-10-04T20:30:16.931Z,73.900000
2023-10-04T20:35:16.846Z,73.700000
2023-10-04T20:40:17.092Z,73.300000
2023-10-04T20:45:16.993Z,72.900000
2023-10-04T20:50:17.154Z,72.500000
2023-10-04T20:55:16.967Z,72.600000
2023-10-04T21:00:17.020Z,72.400000
2023-10-04T21:05:16.853Z,72.200000
2023-10-04T21:10:17.277Z,71.600000
2023-10-04T21:15:17.047Z,71.100000
2023-10-04T21:20:17.069Z,70.800000
2023-10-04T21:25:17.002Z,70.700000
2023-10-04T21:30:16.972Z,70.500000
2023-10-04T21:35:17.106Z,70.300000
2023-10-04T21:40:17.017Z,70.000000
2023-10-04T21:45:17.030Z,69.700000
2023-10-04T21:50:17.029Z,69.500000
2023-10-04T21:55:17.109Z,69.000000
2023-10-04T22:00:17.274Z,68.700000
2023-10-04T22:05:17.032Z,68.400000
2023-10-04T22:10:17.150Z,68.000000
2023-10-04T22:15:17.057Z,67.800000
2023-10-04T22:20:17.115Z,67.400000
2023-10-04T22:25:17.229Z,66.900000
2023-10-04T22:30:17.194Z,66.300000
2023-10-04T22:35:17.131Z,66.400000
2023-10-04T22:40:17.234Z,66.200000
2023-10-04T22:45:17.294Z,66.100000
2023-10-04T22:50:17.161Z,66.200000
2023-10-04T22:55:17.571Z,66.200000
2023-10-04T23:00:17.279Z,66.100000
2023-10-04T23:05:17.220Z,66.100000
2023-10-04T23:10:17.486Z,65.900000
2023-10-04T23:15:17.218Z,65.900000
2023-10-04T23:20:17.145Z,65.800000
2023-10-04T23:25:17.323Z,65.700000
2023-10-04T23:30:17.237Z,65.800000
2023-10-04T23:35:17.290Z,65.800000
2023-10-04T23:40:17.388Z,65.500000
2023-10-04T23:45:17.310Z,65.600000
2023-10-04T23:50:17.331Z,65.400000
2023-10-04T23:55:17.502Z,65.300000
